createdAt,value
2018-03-24T00:00:51.590Z,992.59
2018-03-24T00:01:51.596Z,992.59
2018-03-24T00:02:51.610Z,992.55
2018-03-24T00:03:51.623Z,992.57
2018-03-24T00:04:51.634Z,992.56
2018-03-24T00:05:51.647Z,992.54
2018-03-24T00:06:51.660Z,992.58
2018-03-24T00:07:51.672Z,992.56
2018-03-24T00:08:51.687Z,992.58
2018-03-24T00:09:51.699Z,992.53
2018-03-24T00:10:51.711Z,992.56
2018-03-24T00:11:51.724Z,992.57
2018-03-24T00:12:51.735Z,992.55
2018-03-24T00:13:51.747Z,992.54
2018-03-24T00:14:51.760Z,992.51
2018-03-24T00:15:51.770Z,992.55
2018-03-24T00:16:51.788Z,992.51
2018-03-24T00:17:51.796Z,992.55
2018-03-24T00:18:51.812Z,992.52
2018-03-24T00:19:51.819Z,992.53
2018-03-24T00:20:51.835Z,992.55
2018-03-24T00:21:51.845Z,992.54
2018-03-24T00:22:51.859Z,992.52
2018-03-24T00:23:51.868Z,992.56
2018-03-24T00:24:51.882Z,992.56
2018-03-24T00:25:51.894Z,992.54
2018-03-24T00:26:51.905Z,992.48
2018-03-24T00:27:51.920Z,992.52
2018-03-24T00:28:51.928Z,992.48
2018-03-24T00:29:51.944Z,992.47
2018-03-24T00:30:51.954Z,992.46
2018-03-24T00:31:51.966Z,992.47
2018-03-24T00:32:51.980Z,992.48
2018-03-24T00:33:51.991Z,992.47
2018-03-24T00:34:52.005Z,992.45
2018-03-24T00:35:52.021Z,992.48
2018-03-24T00:36:52.027Z,992.52
2018-03-24T00:37:52.039Z,992.5
2018-03-24T00:38:52.056Z,992.53
2018-03-24T00:39:52.063Z,992.52
2018-03-24T00:40:52.077Z,992.52
2018-03-24T00:41:52.089Z,992.52
2018-03-24T00:42:52.100Z,992.5
2018-03-24T00:43:52.112Z,992.5
2018-03-24T00:44:52.125Z,992.51
2018-03-24T00:45:52.136Z,992.49
2018-03-24T00:46:52.149Z,992.51
2018-03-24T00:47:52.161Z,992.53
2018-03-24T00:48:52.173Z,992.51
2018-03-24T00:49:52.189Z,992.5
2018-03-24T00:50:52.197Z,992.51
2018-03-24T00:51:52.210Z,992.43
2018-03-24T00:52:52.221Z,992.47
2018-03-24T00:53:52.234Z,992.47
2018-03-24T00:54:52.247Z,992.46
2018-03-24T00:55:52.257Z,992.43
2018-03-24T00:56:52.269Z,992.46
2018-03-24T00:57:52.283Z,992.43
2018-03-24T00:58:52.294Z,992.45
2018-03-24T00:59:52.306Z,992.45
2018-03-24T01:00:52.318Z,992.39
2018-03-24T01:01:52.330Z,992.37
2018-03-24T01:02:52.342Z,992.35
2018-03-24T01:03:52.352Z,992.36
2018-03-24T01:04:52.365Z,992.38
2018-03-24T01:05:52.378Z,992.36
2018-03-24T01:06:52.388Z,992.41
2018-03-24T01:07:52.399Z,992.4
2018-03-24T01:08:52.413Z,992.37
2018-03-24T01:09:52.425Z,992.39
2018-03-24T01:10:52.435Z,992.39
2018-03-24T01:11:52.447Z,992.37
2018-03-24T01:12:52.460Z,992.32
2018-03-24T01:13:52.472Z,992.34
2018-03-24T01:14:52.484Z,992.35
2018-03-24T01:15:52.496Z,992.36
2018-03-24T01:16:52.508Z,992.38
2018-03-24T01:17:52.520Z,992.35
2018-03-24T01:18:52.534Z,992.34
2018-03-24T01:19:52.544Z,992.35
2018-03-24T01:20:52.557Z,992.3
2018-03-24T01:21:52.567Z,992.37
2018-03-24T01:22:52.578Z,992.36
2018-03-24T01:23:52.591Z,992.38
2018-03-24T01:24:52.605Z,992.37
2018-03-24T01:25:52.615Z,992.36
2018-03-24T01:26:52.628Z,992.37
2018-03-24T01:27:52.639Z,992.35
2018-03-24T01:28:52.650Z,992.4
2018-03-24T01:29:52.669Z,992.35
2018-03-24T01:30:52.675Z,992.38
2018-03-24T01:31:52.689Z,992.38
2018-03-24T01:32:52.699Z,992.38
2018-03-24T01:33:52.710Z,992.32
2018-03-24T01:34:52.721Z,992.36
2018-03-24T01:35:52.735Z,992.31
2018-03-24T01:36:52.747Z,992.33
2018-03-24T01:37:52.758Z,992.34
2018-03-24T01:38:52.768Z,992.35
2018-03-24T01:39:52.783Z,992.29
2018-03-24T01:40:52.794Z,992.29
2018-03-24T01:41:52.805Z,992.32
2018-03-24T01:42:52.817Z,992.29
2018-03-24T01:43:52.827Z,992.3
2018-03-24T01:44:52.841Z,992.27
2018-03-24T01:45:52.851Z,992.25
2018-03-24T01:46:52.865Z,992.21
2018-03-24T01:47:52.874Z,992.2
2018-03-24T01:48:52.887Z,992.17
2018-03-24T01:49:52.898Z,992.16
2018-03-24T01:50:52.910Z,992.13
2018-03-24T01:51:52.925Z,992.09
2018-03-24T01:52:52.934Z,992.1
2018-03-24T01:53:52.947Z,992.09
2018-03-24T01:54:52.956Z,992.07
2018-03-24T01:55:52.968Z,992.05
2018-03-24T01:56:52.980Z,992.08
2018-03-24T01:57:52.993Z,992.08
2018-03-24T01:58:53.004Z,992.1
2018-03-24T01:59:53.016Z,992.1
2018-03-24T02:00:53.030Z,992.1
2018-03-24T02:01:53.039Z,992.05
2018-03-24T02:02:53.051Z,992.06
2018-03-24T02:03:53.067Z,992.09
2018-03-24T02:04:53.074Z,992.1
2018-03-24T02:05:53.085Z,992.12
2018-03-24T02:06:53.097Z,992.09
2018-03-24T02:07:53.111Z,992.07
2018-03-24T02:08:53.126Z,992
2018-03-24T02:09:53.132Z,992.07
2018-03-24T02:10:53.144Z,992.03
2018-03-24T02:11:53.190Z,992.01
2018-03-24T02:12:53.168Z,992
2018-03-24T02:13:53.183Z,992
2018-03-24T02:14:53.192Z,992.02
2018-03-24T02:15:53.203Z,992.03
2018-03-24T02:16:53.215Z,992.03
2018-03-24T02:17:53.228Z,992.02
2018-03-24T02:18:53.239Z,992.04
2018-03-24T02:19:53.251Z,992
2018-03-24T02:20:53.262Z,992.02
2018-03-24T02:21:53.273Z,992.03
2018-03-24T02:22:53.285Z,991.98
2018-03-24T02:23:53.298Z,992
2018-03-24T02:24:53.306Z,992
2018-03-24T02:25:53.319Z,991.96
2018-03-24T02:26:53.332Z,991.96
2018-03-24T02:27:53.344Z,991.94
2018-03-24T02:28:53.354Z,991.96
2018-03-24T02:29:53.366Z,991.95
2018-03-24T02:30:53.392Z,991.92
2018-03-24T02:31:53.388Z,991.93
2018-03-24T02:32:53.404Z,991.9
2018-03-24T02:33:53.414Z,991.87
2018-03-24T02:34:53.426Z,991.91
2018-03-24T02:35:53.437Z,991.92
2018-03-24T02:36:53.447Z,991.91
2018-03-24T02:37:53.464Z,991.9
2018-03-24T02:38:53.472Z,991.89
2018-03-24T02:39:53.483Z,991.87
2018-03-24T02:40:53.496Z,991.9
2018-03-24T02:41:53.506Z,991.89
2018-03-24T02:42:53.529Z,991.89
2018-03-24T02:43:53.530Z,991.88
2018-03-24T02:44:53.543Z,991.92
2018-03-24T02:45:53.595Z,991.88
2018-03-24T02:46:53.563Z,991.85
2018-03-24T02:47:53.576Z,991.88
2018-03-24T02:48:53.588Z,991.82
2018-03-24T02:49:53.603Z,991.84
2018-03-24T02:50:53.611Z,991.82
2018-03-24T02:51:53.623Z,991.8
2018-03-24T02:52:53.635Z,991.8
2018-03-24T02:53:53.646Z,991.77
2018-03-24T02:54:53.660Z,991.78
2018-03-24T02:55:53.669Z,991.79
2018-03-24T02:56:53.681Z,991.77
2018-03-24T02:57:53.694Z,991.78
2018-03-24T02:58:53.754Z,991.76
2018-03-24T02:59:53.717Z,991.8
2018-03-24T03:00:53.729Z,991.77
2018-03-24T03:01:53.739Z,991.77
2018-03-24T03:02:53.797Z,991.77
2018-03-24T03:03:53.762Z,991.79
2018-03-24T03:04:53.783Z,991.78
2018-03-24T03:05:53.785Z,991.73
2018-03-24T03:06:53.796Z,991.74
2018-03-24T03:07:53.808Z,991.73
2018-03-24T03:08:53.819Z,991.73
2018-03-24T03:09:53.831Z,991.75
2018-03-24T03:10:53.843Z,991.76
2018-03-24T03:11:53.855Z,991.77
2018-03-24T03:12:53.865Z,991.75
2018-03-24T03:13:53.927Z,991.77
2018-03-24T03:14:53.888Z,991.74
2018-03-24T03:15:53.899Z,991.76
2018-03-24T03:16:53.911Z,991.73
2018-03-24T03:17:53.923Z,991.75
2018-03-24T03:18:53.935Z,991.74
2018-03-24T03:19:53.945Z,991.69
2018-03-24T03:20:53.958Z,991.71
2018-03-24T03:21:53.971Z,991.7
2018-03-24T03:22:53.983Z,991.69
2018-03-24T03:23:53.993Z,991.72
2018-03-24T03:24:54.009Z,991.73
2018-03-24T03:25:54.015Z,991.71
2018-03-24T03:26:54.032Z,991.75
2018-03-24T03:27:54.109Z,991.7
2018-03-24T03:28:54.052Z,991.7
2018-03-24T03:29:54.059Z,991.72
2018-03-24T03:30:54.074Z,991.73
2018-03-24T03:31:54.086Z,991.76
2018-03-24T03:32:54.096Z,991.74
2018-03-24T03:33:54.107Z,991.76
2018-03-24T03:34:54.117Z,991.76
2018-03-24T03:35:54.130Z,991.77
2018-03-24T03:36:54.141Z,991.76
2018-03-24T03:37:54.151Z,991.78
2018-03-24T03:38:54.164Z,991.73
2018-03-24T03:39:54.174Z,991.74
2018-03-24T03:40:54.186Z,991.73
2018-03-24T03:41:54.198Z,991.71
2018-03-24T03:42:54.209Z,991.72
2018-03-24T03:43:54.221Z,991.7
2018-03-24T03:44:54.244Z,991.68
2018-03-24T03:45:54.244Z,991.69
2018-03-24T03:46:54.258Z,991.67
2018-03-24T03:47:54.266Z,991.69
2018-03-24T03:48:54.277Z,991.62
2018-03-24T03:49:54.289Z,991.67
2018-03-24T03:50:54.301Z,991.69
2018-03-24T03:51:54.311Z,991.73
2018-03-24T03:52:54.324Z,991.69
2018-03-24T03:53:54.335Z,991.71
2018-03-24T03:54:54.345Z,991.68
2018-03-24T03:55:54.357Z,991.68
2018-03-24T03:56:54.371Z,991.71
2018-03-24T03:57:54.380Z,991.65
2018-03-24T03:58:54.390Z,991.68
2018-03-24T03:59:54.402Z,991.67
2018-03-24T04:00:54.420Z,991.66
2018-03-24T04:01:54.426Z,991.63
2018-03-24T04:02:54.436Z,991.63
2018-03-24T04:03:54.448Z,991.65
2018-03-24T04:04:54.459Z,991.61
2018-03-24T04:05:54.470Z,991.62
2018-03-24T04:06:54.484Z,991.59
2018-03-24T04:07:54.499Z,991.59
2018-03-24T04:08:54.508Z,991.63
2018-03-24T04:09:54.567Z,991.61
2018-03-24T04:10:54.526Z,991.61
2018-03-24T04:11:54.540Z,991.66
2018-03-24T04:12:54.550Z,991.62
2018-03-24T04:13:54.565Z,991.62
2018-03-24T04:14:54.572Z,991.62
2018-03-24T04:15:54.585Z,991.63
2018-03-24T04:16:54.596Z,991.66
2018-03-24T04:17:54.606Z,991.64
2018-03-24T04:18:54.617Z,991.64
2018-03-24T04:19:54.678Z,991.65
2018-03-24T04:20:54.640Z,991.68
2018-03-24T04:21:54.650Z,991.67
2018-03-24T04:22:54.662Z,991.67
2018-03-24T04:23:54.675Z,991.7
2018-03-24T04:24:54.684Z,991.69
2018-03-24T04:25:54.695Z,991.72
2018-03-24T04:26:54.707Z,991.71
2018-03-24T04:27:54.719Z,991.74
2018-03-24T04:28:54.736Z,991.69
2018-03-24T04:29:54.742Z,991.72
2018-03-24T04:30:54.754Z,991.72
2018-03-24T04:31:54.765Z,991.71
2018-03-24T04:32:54.776Z,991.69
2018-03-24T04:33:54.789Z,991.69
2018-03-24T04:34:54.799Z,991.68
2018-03-24T04:35:54.808Z,991.69
2018-03-24T04:36:54.820Z,991.63
2018-03-24T04:37:54.831Z,991.66
2018-03-24T04:38:54.846Z,991.72
2018-03-24T04:39:54.854Z,991.66
2018-03-24T04:40:54.864Z,991.67
2018-03-24T04:41:54.878Z,991.65
2018-03-24T04:42:54.890Z,991.67
2018-03-24T04:43:54.899Z,991.64
2018-03-24T04:44:54.909Z,991.66
2018-03-24T04:45:54.921Z,991.69
2018-03-24T04:46:54.932Z,991.67
2018-03-24T04:47:54.944Z,991.66
2018-03-24T04:48:54.954Z,991.68
2018-03-24T04:49:54.964Z,991.72
2018-03-24T04:50:54.977Z,991.69
2018-03-24T04:51:54.989Z,991.74
2018-03-24T04:52:55.000Z,991.69
2018-03-24T04:53:55.012Z,991.72
2018-03-24T04:54:55.021Z,991.71
2018-03-24T04:55:55.035Z,991.69
2018-03-24T04:56:55.044Z,991.68
2018-03-24T04:57:55.054Z,991.73
2018-03-24T04:58:55.066Z,991.73
2018-03-24T04:59:55.076Z,991.71
2018-03-24T05:00:55.088Z,991.7
2018-03-24T05:01:55.100Z,991.76
2018-03-24T05:02:55.108Z,991.74
2018-03-24T05:03:55.146Z,991.77
2018-03-24T05:04:55.131Z,991.77
2018-03-24T05:05:55.151Z,991.78
2018-03-24T05:06:55.155Z,991.75
2018-03-24T05:07:55.166Z,991.79
2018-03-24T05:08:55.176Z,991.82
2018-03-24T05:09:55.190Z,991.79
2018-03-24T05:10:55.197Z,991.79
2018-03-24T05:11:55.208Z,991.77
2018-03-24T05:12:55.220Z,991.84
2018-03-24T05:13:55.250Z,991.79
2018-03-24T05:14:55.243Z,991.82
2018-03-24T05:15:55.254Z,991.81
2018-03-24T05:16:55.265Z,991.81
2018-03-24T05:17:55.278Z,991.81
2018-03-24T05:18:55.289Z,991.8
2018-03-24T05:19:55.297Z,991.85
2018-03-24T05:20:55.314Z,991.81
2018-03-24T05:21:55.319Z,991.87
2018-03-24T05:22:55.336Z,991.84
2018-03-24T05:23:55.341Z,991.86
2018-03-24T05:24:55.363Z,991.85
2018-03-24T05:25:55.363Z,991.81
2018-03-24T05:26:55.378Z,991.85
2018-03-24T05:27:55.386Z,991.91
2018-03-24T05:28:55.468Z,991.85
2018-03-24T05:29:55.407Z,991.89
2018-03-24T05:30:55.422Z,991.86
2018-03-24T05:31:55.430Z,991.9
2018-03-24T05:32:55.442Z,991.87
2018-03-24T05:33:55.452Z,991.89
2018-03-24T05:34:55.462Z,991.83
2018-03-24T05:35:55.475Z,991.9
2018-03-24T05:36:55.486Z,991.84
2018-03-24T05:37:55.496Z,991.82
2018-03-24T05:38:55.507Z,991.81
2018-03-24T05:39:55.518Z,991.8
2018-03-24T05:40:55.530Z,991.83
2018-03-24T05:41:55.609Z,991.84
2018-03-24T05:42:55.551Z,991.83
2018-03-24T05:43:55.565Z,991.81
2018-03-24T05:44:55.573Z,991.83
2018-03-24T05:45:55.585Z,991.85
2018-03-24T05:46:55.598Z,991.85
2018-03-24T05:47:55.610Z,991.83
2018-03-24T05:48:55.618Z,991.86
2018-03-24T05:49:55.628Z,991.86
2018-03-24T05:50:55.644Z,991.87
2018-03-24T05:51:55.651Z,991.88
2018-03-24T05:52:55.662Z,991.88
2018-03-24T05:53:55.672Z,991.88
2018-03-24T05:54:55.684Z,991.85
2018-03-24T05:55:55.698Z,991.84
2018-03-24T05:56:55.707Z,991.87
2018-03-24T05:57:55.725Z,991.82
2018-03-24T05:58:55.727Z,991.86
2018-03-24T05:59:55.738Z,991.86
2018-03-24T06:00:55.753Z,991.85
2018-03-24T06:01:55.762Z,991.86
2018-03-24T06:02:55.774Z,991.86
2018-03-24T06:03:55.788Z,991.88
2018-03-24T06:04:55.795Z,991.88
2018-03-24T06:05:55.808Z,991.88
2018-03-24T06:06:55.815Z,991.87
2018-03-24T06:07:55.828Z,991.86
2018-03-24T06:08:55.838Z,991.91
2018-03-24T06:09:55.848Z,991.93
2018-03-24T06:10:55.858Z,991.9
2018-03-24T06:11:55.870Z,991.88
2018-03-24T06:12:55.883Z,991.92
2018-03-24T06:13:55.946Z,991.94
2018-03-24T06:14:55.904Z,991.93
2018-03-24T06:15:55.915Z,991.94
2018-03-24T06:16:55.929Z,992
2018-03-24T06:17:55.937Z,991.99
2018-03-24T06:18:55.949Z,991.99
2018-03-24T06:19:55.960Z,992.02
2018-03-24T06:20:55.977Z,992.04
2018-03-24T06:21:55.981Z,991.99
2018-03-24T06:22:55.995Z,992.05
2018-03-24T06:23:56.020Z,992.05
2018-03-24T06:24:56.059Z,992.08
2018-03-24T06:25:56.032Z,992.07
2018-03-24T06:26:56.077Z,992.1
2018-03-24T06:27:56.093Z,992.12
2018-03-24T06:28:56.057Z,992.12
2018-03-24T06:29:56.069Z,992.09
2018-03-24T06:30:56.300Z,992.1
2018-03-24T06:31:56.092Z,992.11
2018-03-24T06:32:56.102Z,992.09
2018-03-24T06:33:56.114Z,992.08
2018-03-24T06:34:56.124Z,992.09
2018-03-24T06:35:56.133Z,992.11
2018-03-24T06:36:56.146Z,992.11
2018-03-24T06:37:56.157Z,992.08
2018-03-24T06:38:56.169Z,992.06
2018-03-24T06:39:56.217Z,992.07
2018-03-24T06:40:56.229Z,992.07
2018-03-24T06:41:56.206Z,992.06
2018-03-24T06:42:56.220Z,992.11
2018-03-24T06:43:56.223Z,992.12
2018-03-24T06:44:56.375Z,992.07
2018-03-24T06:45:56.261Z,992.07
2018-03-24T06:46:56.265Z,992.13
2018-03-24T06:47:56.270Z,992.09
2018-03-24T06:48:56.276Z,992.13
2018-03-24T06:49:56.319Z,992.13
2018-03-24T06:50:56.315Z,992.14
2018-03-24T06:51:56.321Z,992.12
2018-03-24T06:52:56.331Z,992.16
2018-03-24T06:53:56.334Z,992.14
2018-03-24T06:54:56.362Z,992.15
2018-03-24T06:55:56.424Z,992.17
2018-03-24T06:56:56.367Z,992.18
2018-03-24T06:57:56.378Z,992.19
2018-03-24T06:58:56.410Z,992.19
2018-03-24T06:59:56.464Z,992.18
2018-03-24T07:00:56.429Z,992.19
2018-03-24T07:01:56.453Z,992.22
2018-03-24T07:02:56.437Z,992.23
2018-03-24T07:03:56.445Z,992.24
2018-03-24T07:04:56.456Z,992.25
2018-03-24T07:05:56.544Z,992.24
2018-03-24T07:06:56.486Z,992.27
2018-03-24T07:07:56.503Z,992.25
2018-03-24T07:08:56.500Z,992.28
2018-03-24T07:09:56.571Z,992.25
2018-03-24T07:10:56.552Z,992.21
2018-03-24T07:11:56.534Z,992.24
2018-03-24T07:12:56.556Z,992.29
2018-03-24T07:13:56.557Z,992.29
2018-03-24T07:14:56.578Z,992.27
2018-03-24T07:15:56.588Z,992.29
2018-03-24T07:16:56.590Z,992.3
2018-03-24T07:17:56.602Z,992.32
2018-03-24T07:18:56.613Z,992.31
2018-03-24T07:19:56.624Z,992.28
2018-03-24T07:20:56.636Z,992.3
2018-03-24T07:21:56.646Z,992.3
2018-03-24T07:22:56.749Z,992.36
2018-03-24T07:23:56.669Z,992.37
2018-03-24T07:24:56.680Z,992.34
2018-03-24T07:25:56.691Z,992.39
2018-03-24T07:26:56.704Z,992.39
2018-03-24T07:27:56.714Z,992.36
2018-03-24T07:28:56.730Z,992.41
2018-03-24T07:29:56.738Z,992.42
2018-03-24T07:30:56.748Z,992.44
2018-03-24T07:31:56.760Z,992.43
2018-03-24T07:32:56.772Z,992.47
2018-03-24T07:33:56.800Z,992.51
2018-03-24T07:34:56.796Z,992.5
2018-03-24T07:35:56.806Z,992.5
2018-03-24T07:36:56.819Z,992.47
2018-03-24T07:37:56.831Z,992.53
2018-03-24T07:38:56.842Z,992.51
2018-03-24T07:39:56.853Z,992.52
2018-03-24T07:40:56.868Z,992.56
2018-03-24T07:41:56.876Z,992.54
2018-03-24T07:42:56.888Z,992.53
2018-03-24T07:43:56.900Z,992.55
2018-03-24T07:44:56.913Z,992.54
2018-03-24T07:45:56.924Z,992.56
2018-03-24T07:46:56.935Z,992.53
2018-03-24T07:47:56.948Z,992.55
2018-03-24T07:48:56.963Z,992.57
2018-03-24T07:49:56.970Z,992.57
2018-03-24T07:50:56.982Z,992.6
2018-03-24T07:51:56.996Z,992.6
2018-03-24T07:52:57.010Z,992.61
2018-03-24T07:53:57.019Z,992.62
2018-03-24T07:54:57.030Z,992.65
2018-03-24T07:55:57.049Z,992.62
2018-03-24T07:56:57.053Z,992.62
2018-03-24T07:57:57.067Z,992.67
2018-03-24T07:58:57.078Z,992.67
2018-03-24T07:59:57.087Z,992.67
2018-03-24T08:00:57.102Z,992.69
2018-03-24T08:01:57.115Z,992.68
2018-03-24T08:02:57.128Z,992.71
2018-03-24T08:03:57.137Z,992.72
2018-03-24T08:04:57.150Z,992.72
2018-03-24T08:05:57.213Z,992.69
2018-03-24T08:06:57.176Z,992.72
2018-03-24T08:07:57.186Z,992.73
2018-03-24T08:08:57.198Z,992.73
2018-03-24T08:09:57.212Z,992.74
2018-03-24T08:10:57.275Z,992.73
2018-03-24T08:11:57.234Z,992.7
2018-03-24T08:12:57.248Z,992.77
2018-03-24T08:13:57.259Z,992.7
2018-03-24T08:14:57.275Z,992.74
2018-03-24T08:15:57.283Z,992.75
2018-03-24T08:16:57.298Z,992.76
2018-03-24T08:17:57.312Z,992.78
2018-03-24T08:18:57.326Z,992.76
2018-03-24T08:19:57.335Z,992.74
2018-03-24T08:20:57.347Z,992.81
2018-03-24T08:21:57.358Z,992.77
2018-03-24T08:22:57.413Z,992.77
2018-03-24T08:23:57.384Z,992.77
2018-03-24T08:24:57.397Z,992.76
2018-03-24T08:25:57.408Z,992.77
2018-03-24T08:26:57.426Z,992.74
2018-03-24T08:27:57.435Z,992.74
2018-03-24T08:28:57.448Z,992.75
2018-03-24T08:29:57.460Z,992.76
2018-03-24T08:30:57.474Z,992.78
2018-03-24T08:31:57.485Z,992.78
2018-03-24T08:32:57.498Z,992.83
2018-03-24T08:33:57.517Z,992.83
2018-03-24T08:34:57.525Z,992.79
2018-03-24T08:35:57.586Z,992.83
2018-03-24T08:36:57.550Z,992.83
2018-03-24T08:37:57.562Z,992.86
2018-03-24T08:38:57.575Z,992.85
2018-03-24T08:39:57.588Z,992.87
2018-03-24T08:40:57.601Z,992.9
2018-03-24T08:41:57.615Z,992.87
2018-03-24T08:42:57.628Z,992.81
2018-03-24T08:43:57.644Z,992.83
2018-03-24T08:44:57.654Z,992.87
2018-03-24T08:45:57.667Z,992.86
2018-03-24T08:46:57.681Z,992.85
2018-03-24T08:47:57.694Z,992.84
2018-03-24T08:48:57.707Z,992.86
2018-03-24T08:49:57.725Z,992.83
2018-03-24T08:50:57.735Z,992.84
2018-03-24T08:51:57.747Z,992.85
2018-03-24T08:52:57.762Z,992.85
2018-03-24T08:53:57.782Z,992.83
2018-03-24T08:54:57.786Z,992.87
2018-03-24T08:55:57.800Z,992.87
2018-03-24T08:56:57.814Z,992.88
2018-03-24T08:57:57.828Z,992.89
2018-03-24T08:58:57.839Z,992.87
2018-03-24T08:59:57.854Z,992.9
2018-03-24T09:00:57.867Z,992.87
2018-03-24T09:01:57.880Z,992.86
2018-03-24T09:02:57.894Z,992.86
2018-03-24T09:03:57.910Z,992.85
2018-03-24T09:04:57.926Z,992.83
2018-03-24T09:05:57.936Z,992.88
2018-03-24T09:06:57.950Z,992.87
2018-03-24T09:07:57.964Z,992.88
2018-03-24T09:08:57.981Z,992.85
2018-03-24T09:09:57.990Z,992.86
2018-03-24T09:10:58.005Z,992.89
2018-03-24T09:11:58.019Z,992.89
2018-03-24T09:12:58.033Z,992.93
2018-03-24T09:13:58.056Z,992.94
2018-03-24T09:14:58.061Z,992.94
2018-03-24T09:15:58.075Z,992.9
2018-03-24T09:16:58.089Z,992.9
2018-03-24T09:17:58.104Z,992.9
2018-03-24T09:18:58.117Z,992.87
2018-03-24T09:19:58.132Z,992.9
2018-03-24T09:20:58.145Z,992.89
2018-03-24T09:21:58.161Z,992.87
2018-03-24T09:22:58.174Z,992.92
2018-03-24T09:23:58.191Z,992.91
2018-03-24T09:24:58.201Z,992.9
2018-03-24T09:25:58.216Z,992.85
2018-03-24T09:26:58.234Z,992.9
2018-03-24T09:27:58.253Z,992.86
2018-03-24T09:28:58.258Z,992.9
2018-03-24T09:29:58.273Z,992.9
2018-03-24T09:30:58.289Z,992.87
2018-03-24T09:31:58.303Z,992.9
2018-03-24T09:32:58.318Z,992.91
2018-03-24T09:33:58.332Z,992.93
2018-03-24T09:34:58.369Z,992.89
2018-03-24T09:35:58.360Z,992.9
2018-03-24T09:36:58.375Z,992.9
2018-03-24T09:37:58.390Z,992.9
2018-03-24T09:38:58.405Z,992.91
2018-03-24T09:39:58.419Z,992.93
2018-03-24T09:40:58.434Z,992.92
2018-03-24T09:41:58.448Z,992.9
2018-03-24T09:42:58.462Z,992.86
2018-03-24T09:43:58.478Z,992.93
2018-03-24T09:44:58.493Z,992.89
2018-03-24T09:45:58.507Z,992.91
2018-03-24T09:46:58.522Z,992.93
2018-03-24T09:47:58.537Z,992.9
2018-03-24T09:48:58.553Z,992.93
2018-03-24T09:49:58.567Z,992.92
2018-03-24T09:50:58.581Z,992.93
2018-03-24T09:51:58.655Z,992.92
2018-03-24T09:52:58.613Z,992.93
2018-03-24T09:53:58.626Z,992.94
2018-03-24T09:54:58.641Z,992.91
2018-03-24T09:55:58.657Z,992.96
2018-03-24T09:56:58.673Z,992.99
2018-03-24T09:57:58.688Z,992.94
2018-03-24T09:58:58.706Z,992.95
2018-03-24T09:59:58.718Z,992.92
2018-03-24T10:00:58.738Z,992.94
2018-03-24T10:01:58.747Z,992.93
2018-03-24T10:02:58.763Z,992.92
2018-03-24T10:03:58.780Z,992.9
2018-03-24T10:04:58.793Z,992.88
2018-03-24T10:05:58.810Z,992.92
2018-03-24T10:06:58.824Z,992.95
2018-03-24T10:07:58.839Z,992.93
2018-03-24T10:08:58.855Z,992.93
2018-03-24T10:09:58.871Z,992.96
2018-03-24T10:10:58.892Z,992.89
2018-03-24T10:11:58.903Z,992.96
2018-03-24T10:12:58.920Z,992.94
2018-03-24T10:13:58.939Z,992.94
2018-03-24T10:14:58.960Z,992.96
2018-03-24T10:15:58.964Z,992.93
2018-03-24T10:16:58.980Z,992.97
2018-03-24T10:17:58.996Z,992.93
2018-03-24T10:18:59.011Z,992.95
2018-03-24T10:19:59.028Z,992.98
2018-03-24T10:20:59.044Z,992.96
2018-03-24T10:21:59.063Z,992.91
2018-03-24T10:22:59.075Z,992.93
2018-03-24T10:23:59.092Z,992.87
2018-03-24T10:24:59.107Z,992.9
2018-03-24T10:25:59.123Z,992.87
2018-03-24T10:26:59.141Z,992.88
2018-03-24T10:27:59.154Z,992.91
2018-03-24T10:28:59.171Z,992.91
2018-03-24T10:29:59.186Z,992.86
2018-03-24T10:30:59.205Z,992.86
2018-03-24T10:31:59.219Z,992.86
2018-03-24T10:32:59.236Z,992.92
2018-03-24T10:33:59.252Z,992.89
2018-03-24T10:34:59.267Z,992.89
2018-03-24T10:35:59.284Z,992.87
2018-03-24T10:36:59.300Z,992.89
2018-03-24T10:37:59.317Z,992.87
2018-03-24T10:38:59.343Z,992.86
2018-03-24T10:39:59.349Z,992.89
2018-03-24T10:40:59.366Z,992.86
2018-03-24T10:41:59.381Z,992.86
2018-03-24T10:42:59.399Z,992.87
2018-03-24T10:43:59.415Z,992.86
2018-03-24T10:44:59.433Z,992.89
2018-03-24T10:45:59.448Z,992.9
2018-03-24T10:46:59.466Z,992.92
2018-03-24T10:47:59.482Z,992.89
2018-03-24T10:48:59.498Z,992.94
2018-03-24T10:49:59.518Z,992.92
2018-03-24T10:50:59.533Z,992.88
2018-03-24T10:51:59.611Z,992.87
2018-03-24T10:52:59.567Z,992.87
2018-03-24T10:53:59.584Z,992.85
2018-03-24T10:54:59.602Z,992.79
2018-03-24T10:55:59.617Z,992.85
2018-03-24T10:56:59.633Z,992.83
2018-03-24T10:57:59.678Z,992.81
2018-03-24T10:58:59.670Z,992.8
2018-03-24T10:59:59.684Z,992.78
2018-03-24T11:00:59.703Z,992.82
2018-03-24T11:01:59.748Z,992.81
2018-03-24T11:02:59.735Z,992.8
2018-03-24T11:03:59.753Z,992.8
2018-03-24T11:04:59.770Z,992.8
2018-03-24T11:05:59.790Z,992.83
2018-03-24T11:06:59.805Z,992.83
2018-03-24T11:07:59.824Z,992.81
2018-03-24T11:08:59.841Z,992.84
2018-03-24T11:09:59.856Z,992.83
2018-03-24T11:10:59.874Z,992.78
2018-03-24T11:11:59.891Z,992.79
2018-03-24T11:12:59.911Z,992.81
2018-03-24T11:13:59.927Z,992.82
2018-03-24T11:14:59.945Z,992.83
2018-03-24T11:15:59.963Z,992.82
2018-03-24T11:16:59.980Z,992.84
2018-03-24T11:17:59.997Z,992.84
2018-03-24T11:19:00.016Z,992.87
2018-03-24T11:20:00.033Z,992.82
2018-03-24T11:21:00.050Z,992.81
2018-03-24T11:22:00.068Z,992.8
2018-03-24T11:23:00.087Z,992.79
2018-03-24T11:24:00.105Z,992.81
2018-03-24T11:25:00.122Z,992.76
2018-03-24T11:26:00.141Z,992.82
2018-03-24T11:27:00.159Z,992.83
2018-03-24T11:28:00.226Z,992.83
2018-03-24T11:29:00.194Z,992.8
2018-03-24T11:30:00.213Z,992.81
2018-03-24T11:31:00.236Z,992.79
2018-03-24T11:32:00.254Z,992.81
2018-03-24T11:33:00.268Z,992.82
2018-03-24T11:34:00.284Z,992.83
2018-03-24T11:35:00.304Z,992.82
2018-03-24T11:36:00.327Z,992.81
2018-03-24T11:37:00.340Z,992.85
2018-03-24T11:38:00.415Z,992.83
2018-03-24T11:39:00.377Z,992.83
2018-03-24T11:40:00.395Z,992.85
2018-03-24T11:41:00.416Z,992.88
2018-03-24T11:42:00.432Z,992.81
2018-03-24T11:43:00.449Z,992.82
2018-03-24T11:44:00.470Z,992.82
2018-03-24T11:45:00.541Z,992.84
2018-03-24T11:46:00.507Z,992.85
2018-03-24T11:47:00.524Z,992.86
2018-03-24T11:48:00.593Z,992.85
2018-03-24T11:49:00.561Z,992.84
2018-03-24T11:50:00.581Z,992.83
2018-03-24T11:51:00.596Z,992.82
2018-03-24T11:52:00.618Z,992.83
2018-03-24T11:53:00.635Z,992.83
2018-03-24T11:54:00.657Z,992.82
2018-03-24T11:55:00.671Z,992.84
2018-03-24T11:56:00.694Z,992.82
2018-03-24T11:57:00.711Z,992.84
2018-03-24T11:58:00.731Z,992.84
2018-03-24T11:59:00.747Z,992.8
2018-03-24T12:00:00.779Z,992.8
2018-03-24T12:01:00.784Z,992.8
2018-03-24T12:02:00.802Z,992.8
2018-03-24T12:03:00.822Z,992.79
2018-03-24T12:04:00.844Z,992.84
2018-03-24T12:05:00.858Z,992.81
2018-03-24T12:06:00.882Z,992.8
2018-03-24T12:07:00.897Z,992.8
2018-03-24T12:08:00.927Z,992.78
2018-03-24T12:09:00.934Z,992.78
2018-03-24T12:10:00.958Z,992.78
2018-03-24T12:11:00.976Z,992.76
2018-03-24T12:12:00.995Z,992.78
2018-03-24T12:13:01.298Z,992.79
2018-03-24T12:14:01.035Z,992.77
2018-03-24T12:15:01.054Z,992.76
2018-03-24T12:16:01.066Z,992.71
2018-03-24T12:17:01.085Z,992.72
2018-03-24T12:18:01.108Z,992.73
2018-03-24T12:19:01.124Z,992.75
2018-03-24T12:20:01.147Z,992.77
2018-03-24T12:21:01.161Z,992.77
2018-03-24T12:22:01.180Z,992.78
2018-03-24T12:23:01.204Z,992.78
2018-03-24T12:24:01.218Z,992.75
2018-03-24T12:25:01.238Z,992.77
2018-03-24T12:26:01.259Z,992.76
2018-03-24T12:27:01.276Z,992.76
2018-03-24T12:28:01.298Z,992.76
2018-03-24T12:29:01.315Z,992.8
2018-03-24T12:30:01.337Z,992.76
2018-03-24T12:31:01.352Z,992.73
2018-03-24T12:32:01.372Z,992.73